createdAt,value
2018-03-07T00:02:35.363Z,81.95
2018-03-07T00:17:36.083Z,81.82
2018-03-07T00:32:33.623Z,80.92
2018-03-07T00:47:34.037Z,81.25
2018-03-07T01:02:36.684Z,81.83
2018-03-07T01:17:34.448Z,81.55
2018-03-07T01:32:35.268Z,80.99
2018-03-07T01:47:36.816Z,80.60
2018-03-07T02:02:36.804Z,80.20
2018-03-07T02:17:34.621Z,79.79
2018-03-07T02:32:38.045Z,79.89
2018-03-07T02:47:37.920Z,79.86
2018-03-07T03:02:35.377Z,80.65
2018-03-07T03:17:34.871Z,80.44
2018-03-07T03:32:37.144Z,80.17
2018-03-07T03:47:40.258Z,80.57
2018-03-07T04:02:35.039Z,81.08
2018-03-07T04:17:35.102Z,81.60
2018-03-07T04:47:35.249Z,71.10
2018-03-07T05:02:35.258Z,65.24
2018-03-07T05:17:35.158Z,62.22
2018-03-07T05:32:34.125Z,58.83
2018-03-07T05:47:34.498Z,54.11
2018-03-07T06:02:34.974Z,49.93
2018-03-07T06:17:34.413Z,43.05
2018-03-07T06:32:36.775Z,39.02
2018-03-07T06:47:34.571Z,43.74
2018-03-07T07:02:37.251Z,46.47
2018-03-07T07:17:34.679Z,48.60
2018-03-07T07:32:38.061Z,47.90
2018-03-07T07:47:37.511Z,42.63
2018-03-07T08:02:36.875Z,38.81
2018-03-07T08:17:36.330Z,36.22
2018-03-07T08:32:35.179Z,33.92
2018-03-07T08:47:38.119Z,32.97
2018-03-07T09:02:35.208Z,31.45
2018-03-07T09:17:37.317Z,30.68
2018-03-07T09:32:34.406Z,30.17
2018-03-07T09:47:33.695Z,30.41
2018-03-07T10:02:37.836Z,30.17
2018-03-07T10:17:36.105Z,29.48
2018-03-07T10:32:34.505Z,29.94
2018-03-07T10:47:33.826Z,30.29
2018-03-07T11:02:35.839Z,30.77
2018-03-07T11:17:37.219Z,31.36
2018-03-07T11:32:34.639Z,31.61
2018-03-07T11:47:37.739Z,32.79
2018-03-07T12:02:36.177Z,37.81
2018-03-07T12:17:33.478Z,35.63
2018-03-07T12:32:35.163Z,36.82
2018-03-07T12:47:37.520Z,37.25
2018-03-07T13:02:36.494Z,36.71
2018-03-07T13:17:34.182Z,38.62
2018-03-07T13:32:34.972Z,37.23
2018-03-07T13:47:37.023Z,36.69
2018-03-07T14:02:35.134Z,36.63
2018-03-07T14:17:34.840Z,37.72
2018-03-07T14:32:34.176Z,38.61
2018-03-07T14:47:34.672Z,39.59
2018-03-07T15:02:33.785Z,40.71
2018-03-07T15:17:35.109Z,43.58
2018-03-07T15:32:35.083Z,44.84
2018-03-07T15:47:33.850Z,45.31
2018-03-07T16:02:34.045Z,46.36
2018-03-07T16:17:34.457Z,45.53
2018-03-07T16:32:34.298Z,46.92
2018-03-07T16:47:34.223Z,52.14
2018-03-07T17:02:36.219Z,54.81
2018-03-07T17:17:34.514Z,55.80
2018-03-07T17:32:36.947Z,56.68
2018-03-07T17:47:34.933Z,57.57
2018-03-07T18:02:40.014Z,58.52
2018-03-07T18:17:34.833Z,59.44
2018-03-07T18:32:37.061Z,59.39
2018-03-07T18:47:37.112Z,61.10
2018-03-07T19:02:39.986Z,61.66
2018-03-07T19:17:37.187Z,62.43
2018-03-07T19:32:38.409Z,62.04
2018-03-07T20:02:38.114Z,62.30
2018-03-07T20:17:39.949Z,62.85
2018-03-07T20:32:41.265Z,61.89
2018-03-07T20:47:35.923Z,62.66
2018-03-07T21:02:40.999Z,63.21
2018-03-07T21:17:35.357Z,63.66
2018-03-07T21:32:35.575Z,63.57
2018-03-07T21:47:45.867Z,63.01
2018-03-07T22:02:33.888Z,62.72
2018-03-07T22:17:34.846Z,62.67
2018-03-07T22:32:36.967Z,62.88
2018-03-07T22:47:35.075Z,62.89
2018-03-07T23:02:39.190Z,62.70
2018-03-07T23:17:35.485Z,62.29
2018-03-07T23:32:36.425Z,62.90
2018-03-07T23:47:34.944Z,63.79
